sensor_id;sensor_type;location;lat;lon;timestamp;temperature;humidity
21627;DHT22;10975;47.872;12.972;2023-12-20T00:01:03;1.70;99.90
21627;DHT22;10975;47.872;12.972;2023-12-20T00:03:30;1.60;99.90
21627;DHT22;10975;47.872;12.972;2023-12-20T00:06:08;1.50;99.90
21627;DHT22;10975;47.872;12.972;2023-12-20T00:08:35;1.50;99.90
21627;DHT22;10975;47.872;12.972;2023-12-20T00:11:01;1.40;99.90
21627;DHT22;10975;47.872;12.972;2023-12-20T00:13:28;1.30;99.90
21627;DHT22;10975;47.872;12.972;2023-12-20T00:15:55;1.20;99.90
21627;DHT22;10975;47.872;12.972;2023-12-20T00:18:22;1.20;99.90
21627;DHT22;10975;47.872;12.972;2023-12-20T00:20:49;1.10;99.90
21627;DHT22;10975;47.872;12.972;2023-12-20T00:23:16;1.00;99.90
21627;DHT22;10975;47.872;12.972;2023-12-20T00:25:43;1.00;99.90
21627;DHT22;10975;47.872;12.972;2023-12-20T00:28:09;0.90;99.90
21627;DHT22;10975;47.872;12.972;2023-12-20T00:30:36;0.90;99.90
21627;DHT22;10975;47.872;12.972;2023-12-20T00:33:03;0.90;99.90
21627;DHT22;10975;47.872;12.972;2023-12-20T00:35:30;0.90;99.90
21627;DHT22;10975;47.872;12.972;2023-12-20T00:37:58;0.90;99.90
21627;DHT22;10975;47.872;12.972;2023-12-20T00:40:24;0.80;99.90
21627;DHT22;10975;47.872;12.972;2023-12-20T00:42:51;0.80;99.90
21627;DHT22;10975;47.872;12.972;2023-12-20T00:45:18;0.80;99.90
21627;DHT22;10975;47.872;12.972;2023-12-20T00:47:45;0.70;99.90
21627;DHT22;10975;47.872;12.972;2023-12-20T00:50:12;0.70;99.90
21627;DHT22;10975;47.872;12.972;2023-12-20T00:52:40;0.60;99.90
21627;DHT22;10975;47.872;12.972;2023-12-20T00:55:07;0.60;99.90
21627;DHT22;10975;47.872;12.972;2023-12-20T00:57:34;0.50;99.90
21627;DHT22;10975;47.872;12.972;2023-12-20T01:00:01;0.50;99.90
21627;DHT22;10975;47.872;12.972;2023-12-20T01:02:28;0.40;99.90
21627;DHT22;10975;47.872;12.972;2023-12-20T01:04:55;0.40;99.90
21627;DHT22;10975;47.872;12.972;2023-12-20T01:07:22;0.40;99.90
21627;DHT22;10975;47.872;12.972;2023-12-20T01:09:49;0.30;99.90
21627;DHT22;10975;47.872;12.972;2023-12-20T01:12:16;0.30;99.90
21627;DHT22;10975;47.872;12.972;2023-12-20T01:14:43;0.30;99.90
21627;DHT22;10975;47.872;12.972;2023-12-20T01:17:09;0.30;99.90
21627;DHT22;10975;47.872;12.972;2023-12-20T01:19:36;0.30;99.90
21627;DHT22;10975;47.872;12.972;2023-12-20T01:22:04;0.30;99.90
21627;DHT22;10975;47.872;12.972;2023-12-20T01:24:30;0.30;99.90
21627;DHT22;10975;47.872;12.972;2023-12-20T01:26:57;0.30;99.90
21627;DHT22;10975;47.872;12.972;2023-12-20T01:29:24;0.20;99.90
21627;DHT22;10975;47.872;12.972;2023-12-20T01:31:51;0.30;99.90
21627;DHT22;10975;47.872;12.972;2023-12-20T01:34:17;0.30;99.90
21627;DHT22;10975;47.872;12.972;2023-12-20T01:36:45;0.30;99.90
21627;DHT22;10975;47.872;12.972;2023-12-20T01:39:11;0.40;99.90
21627;DHT22;10975;47.872;12.972;2023-12-20T01:41:53;0.30;99.90
21627;DHT22;10975;47.872;12.972;2023-12-20T01:44:20;0.20;99.90
21627;DHT22;10975;47.872;12.972;2023-12-20T01:46:46;0.20;99.90
21627;DHT22;10975;47.872;12.972;2023-12-20T01:49:14;0.20;99.90
21627;DHT22;10975;47.872;12.972;2023-12-20T01:51:41;0.10;99.90
21627;DHT22;10975;47.872;12.972;2023-12-20T01:54:08;0.00;99.90
21627;DHT22;10975;47.872;12.972;2023-12-20T01:56:35;0.00;99.90
21627;DHT22;10975;47.872;12.972;2023-12-20T01:59:02;0.00;99.90
21627;DHT22;10975;47.872;12.972;2023-12-20T02:01:30;0.10;99.90
21627;DHT22;10975;47.872;12.972;2023-12-20T02:03:58;0.00;99.90
21627;DHT22;10975;47.872;12.972;2023-12-20T02:06:26;0.00;99.90
21627;DHT22;10975;47.872;12.972;2023-12-20T02:08:55;0.10;99.90
21627;DHT22;10975;47.872;12.972;2023-12-20T02:11:22;0.10;99.90
21627;DHT22;10975;47.872;12.972;2023-12-20T02:13:49;0.20;99.90
21627;DHT22;10975;47.872;12.972;2023-12-20T02:16:15;0.20;99.90
21627;DHT22;10975;47.872;12.972;2023-12-20T02:18:43;0.20;99.90
21627;DHT22;10975;47.872;12.972;2023-12-20T02:21:10;0.20;99.90
21627;DHT22;10975;47.872;12.972;2023-12-20T02:23:37;0.20;99.90
21627;DHT22;10975;47.872;12.972;2023-12-20T02:26:04;0.20;99.90
21627;DHT22;10975;47.872;12.972;2023-12-20T02:28:31;0.20;99.90
21627;DHT22;10975;47.872;12.972;2023-12-20T02:30:58;0.30;99.90
21627;DHT22;10975;47.872;12.972;2023-12-20T02:33:25;0.30;99.90
21627;DHT22;10975;47.872;12.972;2023-12-20T02:35:52;0.40;99.90
21627;DHT22;10975;47.872;12.972;2023-12-20T02:38:19;0.40;99.90
21627;DHT22;10975;47.872;12.972;2023-12-20T02:40:46;0.40;99.90
21627;DHT22;10975;47.872;12.972;2023-12-20T02:43:15;0.50;99.90
21627;DHT22;10975;47.872;12.972;2023-12-20T02:45:43;0.70;99.90
21627;DHT22;10975;47.872;12.972;2023-12-20T02:48:09;0.60;99.90
21627;DHT22;10975;47.872;12.972;2023-12-20T02:50:36;0.60;99.90
21627;DHT22;10975;47.872;12.972;2023-12-20T02:53:03;0.70;99.90
21627;DHT22;10975;47.872;12.972;2023-12-20T02:55:30;0.70;99.90
21627;DHT22;10975;47.872;12.972;2023-12-20T02:57:56;0.60;99.90
21627;DHT22;10975;47.872;12.972;2023-12-20T03:00:23;0.60;99.90
21627;DHT22;10975;47.872;12.972;2023-12-20T03:02:50;0.60;99.90
21627;DHT22;10975;47.872;12.972;2023-12-20T03:05:17;0.60;99.90
21627;DHT22;10975;47.872;12.972;2023-12-20T03:07:44;0.60;99.90
21627;DHT22;10975;47.872;12.972;2023-12-20T03:10:11;0.60;99.90
21627;DHT22;10975;47.872;12.972;2023-12-20T03:12:49;0.60;99.90
21627;DHT22;10975;47.872;12.972;2023-12-20T03:15:16;0.60;99.90
21627;DHT22;10975;47.872;12.972;2023-12-20T03:17:43;0.60;99.90
21627;DHT22;10975;47.872;12.972;2023-12-20T03:20:10;0.60;99.90
21627;DHT22;10975;47.872;12.972;2023-12-20T03:22:37;0.70;99.90
21627;DHT22;10975;47.872;12.972;2023-12-20T03:25:04;0.70;99.90
21627;DHT22;10975;47.872;12.972;2023-12-20T03:27:31;0.70;99.90
21627;DHT22;10975;47.872;12.972;2023-12-20T03:29:57;0.70;99.90
21627;DHT22;10975;47.872;12.972;2023-12-20T03:32:24;0.70;99.90
21627;DHT22;10975;47.872;12.972;2023-12-20T03:34:51;0.70;99.90
21627;DHT22;10975;47.872;12.972;2023-12-20T03:37:18;0.80;99.90
21627;DHT22;10975;47.872;12.972;2023-12-20T03:39:44;0.80;99.90
21627;DHT22;10975;47.872;12.972;2023-12-20T03:42:11;0.80;99.90
21627;DHT22;10975;47.872;12.972;2023-12-20T03:44:39;0.80;99.90
21627;DHT22;10975;47.872;12.972;2023-12-20T03:47:07;0.80;99.90
21627;DHT22;10975;47.872;12.972;2023-12-20T03:49:34;0.80;99.90
21627;DHT22;10975;47.872;12.972;2023-12-20T03:52:04;0.80;99.90
21627;DHT22;10975;47.872;12.972;2023-12-20T03:54:31;0.90;99.90
21627;DHT22;10975;47.872;12.972;2023-12-20T03:56:57;0.90;99.90
21627;DHT22;10975;47.872;12.972;2023-12-20T03:59:24;0.90;99.90
21627;DHT22;10975;47.872;12.972;2023-12-20T04:01:51;1.00;99.90
21627;DHT22;10975;47.872;12.972;2023-12-20T04:04:18;1.00;99.90
21627;DHT22;10975;47.872;12.972;2023-12-20T04:06:45;1.10;99.90
21627;DHT22;10975;47.872;12.972;2023-12-20T04:09:12;1.20;99.90
21627;DHT22;10975;47.872;12.972;2023-12-20T04:11:39;1.20;99.90
21627;DHT22;10975;47.872;12.972;2023-12-20T04:14:06;1.20;99.90
21627;DHT22;10975;47.872;12.972;2023-12-20T04:16:34;1.20;99.90
21627;DHT22;10975;47.872;12.972;2023-12-20T04:19:01;1.30;99.90
21627;DHT22;10975;47.872;12.972;2023-12-20T04:21:28;1.40;99.90
21627;DHT22;10975;47.872;12.972;2023-12-20T04:23:54;1.50;99.90
21627;DHT22;10975;47.872;12.972;2023-12-20T04:26:21;1.50;99.90
21627;DHT22;10975;47.872;12.972;2023-12-20T04:28:48;1.60;99.90
21627;DHT22;10975;47.872;12.972;2023-12-20T04:31:17;1.60;99.90
21627;DHT22;10975;47.872;12.972;2023-12-20T04:33:44;1.60;99.90
21627;DHT22;10975;47.872;12.972;2023-12-20T04:36:11;1.60;99.90
21627;DHT22;10975;47.872;12.972;2023-12-20T04:38:38;1.70;99.90
21627;DHT22;10975;47.872;12.972;2023-12-20T04:41:04;1.70;99.90
21627;DHT22;10975;47.872;12.972;2023-12-20T04:43:31;1.70;99.90
21627;DHT22;10975;47.872;12.972;2023-12-20T04:45:58;1.70;99.90
21627;DHT22;10975;47.872;12.972;2023-12-20T04:48:24;1.80;99.90
21627;DHT22;10975;47.872;12.972;2023-12-20T04:50:51;1.80;99.90
21627;DHT22;10975;47.872;12.972;2023-12-20T04:53:18;1.80;99.90
21627;DHT22;10975;47.872;12.972;2023-12-20T04:55:45;1.80;99.90
21627;DHT22;10975;47.872;12.972;2023-12-20T04:58:11;1.90;99.90
21627;DHT22;10975;47.872;12.972;2023-12-20T05:00:38;1.90;99.90
21627;DHT22;10975;47.872;12.972;2023-12-20T05:03:05;2.00;99.90
21627;DHT22;10975;47.872;12.972;2023-12-20T05:05:33;2.00;99.90
21627;DHT22;10975;47.872;12.972;2023-12-20T05:07:59;2.10;99.90
21627;DHT22;10975;47.872;12.972;2023-12-20T05:10:26;2.00;99.90
21627;DHT22;10975;47.872;12.972;2023-12-20T05:12:54;2.00;99.90
21627;DHT22;10975;47.872;12.972;2023-12-20T05:15:21;2.10;99.90
21627;DHT22;10975;47.872;12.972;2023-12-20T05:17:48;2.00;99.90
21627;DHT22;10975;47.872;12.972;2023-12-20T05:20:15;2.00;99.90
21627;DHT22;10975;47.872;12.972;2023-12-20T05:22:42;2.00;99.90
21627;DHT22;10975;47.872;12.972;2023-12-20T05:25:09;2.00;99.90
21627;DHT22;10975;47.872;12.972;2023-12-20T05:27:35;2.00;99.90
21627;DHT22;10975;47.872;12.972;2023-12-20T05:30:02;2.10;99.90
21627;DHT22;10975;47.872;12.972;2023-12-20T05:32:31;2.10;99.90
21627;DHT22;10975;47.872;12.972;2023-12-20T05:34:58;2.20;99.90
21627;DHT22;10975;47.872;12.972;2023-12-20T05:37:24;2.20;99.90
21627;DHT22;10975;47.872;12.972;2023-12-20T05:39:52;2.20;99.90
21627;DHT22;10975;47.872;12.972;2023-12-20T05:42:19;2.20;99.90
21627;DHT22;10975;47.872;12.972;2023-12-20T05:44:46;2.20;99.90
21627;DHT22;10975;47.872;12.972;2023-12-20T05:47:13;2.20;99.90
21627;DHT22;10975;47.872;12.972;2023-12-20T05:49:40;2.50;99.90
21627;DHT22;10975;47.872;12.972;2023-12-20T05:52:07;3.10;99.90
21627;DHT22;10975;47.872;12.972;2023-12-20T05:54:34;3.70;99.90
21627;DHT22;10975;47.872;12.972;2023-12-20T05:57:01;4.00;99.90
21627;DHT22;10975;47.872;12.972;2023-12-20T05:59:28;4.20;99.90
21627;DHT22;10975;47.872;12.972;2023-12-20T06:01:54;4.30;99.90
21627;DHT22;10975;47.872;12.972;2023-12-20T06:04:21;4.40;99.90
21627;DHT22;10975;47.872;12.972;2023-12-20T06:06:49;4.50;99.90
21627;DHT22;10975;47.872;12.972;2023-12-20T06:09:16;4.60;99.90
21627;DHT22;10975;47.872;12.972;2023-12-20T06:11:43;4.90;99.90
21627;DHT22;10975;47.872;12.972;2023-12-20T06:14:09;4.90;99.90
21627;DHT22;10975;47.872;12.972;2023-12-20T06:16:36;5.20;99.90
21627;DHT22;10975;47.872;12.972;2023-12-20T06:19:03;5.10;99.90
21627;DHT22;10975;47.872;12.972;2023-12-20T06:21:30;5.20;99.90
21627;DHT22;10975;47.872;12.972;2023-12-20T06:23:58;5.30;99.90
21627;DHT22;10975;47.872;12.972;2023-12-20T06:26:25;5.40;99.90
21627;DHT22;10975;47.872;12.972;2023-12-20T06:28:51;5.40;99.90
21627;DHT22;10975;47.872;12.972;2023-12-20T06:31:18;5.60;99.90
21627;DHT22;10975;47.872;12.972;2023-12-20T06:33:45;5.70;99.90
21627;DHT22;10975;47.872;12.972;2023-12-20T06:36:12;5.70;99.90
21627;DHT22;10975;47.872;12.972;2023-12-20T06:38:40;5.80;99.90
21627;DHT22;10975;47.872;12.972;2023-12-20T06:41:08;6.00;99.90
21627;DHT22;10975;47.872;12.972;2023-12-20T06:43:35;6.10;99.90
21627;DHT22;10975;47.872;12.972;2023-12-20T06:46:15;5.90;99.90
21627;DHT22;10975;47.872;12.972;2023-12-20T06:48:42;6.10;99.90
21627;DHT22;10975;47.872;12.972;2023-12-20T06:51:15;6.10;99.90
21627;DHT22;10975;47.872;12.972;2023-12-20T06:53:43;6.20;99.90
21627;DHT22;10975;47.872;12.972;2023-12-20T06:56:10;6.10;99.90
21627;DHT22;10975;47.872;12.972;2023-12-20T06:58:39;6.10;99.90
21627;DHT22;10975;47.872;12.972;2023-12-20T07:01:10;6.10;99.90
21627;DHT22;10975;47.872;12.972;2023-12-20T07:03:37;6.00;99.90
21627;DHT22;10975;47.872;12.972;2023-12-20T07:06:04;6.00;99.90
21627;DHT22;10975;47.872;12.972;2023-12-20T07:08:31;6.00;99.90
21627;DHT22;10975;47.872;12.972;2023-12-20T07:10:57;6.10;99.90
21627;DHT22;10975;47.872;12.972;2023-12-20T07:13:24;6.10;99.90
21627;DHT22;10975;47.872;12.972;2023-12-20T07:15:51;6.10;99.90
21627;DHT22;10975;47.872;12.972;2023-12-20T07:18:18;6.10;99.90
21627;DHT22;10975;47.872;12.972;2023-12-20T07:20:45;6.10;99.90
21627;DHT22;10975;47.872;12.972;2023-12-20T07:23:11;6.10;99.90
21627;DHT22;10975;47.872;12.972;2023-12-20T07:25:38;6.00;99.90
21627;DHT22;10975;47.872;12.972;2023-12-20T07:28:05;5.90;99.90
21627;DHT22;10975;47.872;12.972;2023-12-20T07:30:32;6.00;99.90
21627;DHT22;10975;47.872;12.972;2023-12-20T07:32:59;6.10;99.90
21627;DHT22;10975;47.872;12.972;2023-12-20T07:35:26;6.20;99.90
21627;DHT22;10975;47.872;12.972;2023-12-20T07:37:53;6.20;99.90
21627;DHT22;10975;47.872;12.972;2023-12-20T07:40:19;6.20;99.90
21627;DHT22;10975;47.872;12.972;2023-12-20T07:42:46;6.00;99.90
21627;DHT22;10975;47.872;12.972;2023-12-20T07:45:13;6.00;99.90
21627;DHT22;10975;47.872;12.972;2023-12-20T07:47:40;6.00;99.90
21627;DHT22;10975;47.872;12.972;2023-12-20T07:50:07;6.00;99.90
21627;DHT22;10975;47.872;12.972;2023-12-20T07:52:34;5.90;99.90
21627;DHT22;10975;47.872;12.972;2023-12-20T07:55:01;5.90;99.90
21627;DHT22;10975;47.872;12.972;2023-12-20T07:57:28;6.00;99.90
21627;DHT22;10975;47.872;12.972;2023-12-20T07:59:56;5.90;99.90
21627;DHT22;10975;47.872;12.972;2023-12-20T08:02:22;5.70;99.90
21627;DHT22;10975;47.872;12.972;2023-12-20T08:04:49;5.60;99.90
21627;DHT22;10975;47.872;12.972;2023-12-20T08:07:16;5.50;99.90
21627;DHT22;10975;47.872;12.972;2023-12-20T08:09:43;5.40;99.90
21627;DHT22;10975;47.872;12.972;2023-12-20T08:12:10;5.40;99.90
21627;DHT22;10975;47.872;12.972;2023-12-20T08:14:37;5.40;99.90
21627;DHT22;10975;47.872;12.972;2023-12-20T08:17:04;5.30;99.90
21627;DHT22;10975;47.872;12.972;2023-12-20T08:19:31;5.30;99.90
21627;DHT22;10975;47.872;12.972;2023-12-20T08:21:58;5.30;99.90
21627;DHT22;10975;47.872;12.972;2023-12-20T08:24:24;5.50;99.90
21627;DHT22;10975;47.872;12.972;2023-12-20T08:26:51;5.70;99.90
21627;DHT22;10975;47.872;12.972;2023-12-20T08:29:19;5.70;99.90
21627;DHT22;10975;47.872;12.972;2023-12-20T08:31:45;5.70;99.90
21627;DHT22;10975;47.872;12.972;2023-12-20T08:34:13;5.70;99.90
21627;DHT22;10975;47.872;12.972;2023-12-20T08:36:41;5.80;99.90
21627;DHT22;10975;47.872;12.972;2023-12-20T08:39:08;5.70;99.90
21627;DHT22;10975;47.872;12.972;2023-12-20T08:41:35;5.80;99.90
21627;DHT22;10975;47.872;12.972;2023-12-20T08:44:03;5.80;99.90
21627;DHT22;10975;47.872;12.972;2023-12-20T08:46:30;5.70;99.90
21627;DHT22;10975;47.872;12.972;2023-12-20T08:48:57;5.70;99.90
21627;DHT22;10975;47.872;12.972;2023-12-20T08:51:24;5.70;99.90
21627;DHT22;10975;47.872;12.972;2023-12-20T08:53:52;5.70;99.90
21627;DHT22;10975;47.872;12.972;2023-12-20T08:56:19;5.80;99.90
21627;DHT22;10975;47.872;12.972;2023-12-20T08:58:46;5.80;99.90
21627;DHT22;10975;47.872;12.972;2023-12-20T09:01:13;5.80;99.90
21627;DHT22;10975;47.872;12.972;2023-12-20T09:03:40;5.80;99.90
21627;DHT22;10975;47.872;12.972;2023-12-20T09:06:07;5.80;99.90
21627;DHT22;10975;47.872;12.972;2023-12-20T09:08:34;5.70;99.90
21627;DHT22;10975;47.872;12.972;2023-12-20T09:11:00;5.80;99.90
21627;DHT22;10975;47.872;12.972;2023-12-20T09:13:27;5.70;99.90
21627;DHT22;10975;47.872;12.972;2023-12-20T09:15:55;5.80;99.90
21627;DHT22;10975;47.872;12.972;2023-12-20T09:18:22;5.80;99.90
21627;DHT22;10975;47.872;12.972;2023-12-20T09:20:49;5.70;99.90
21627;DHT22;10975;47.872;12.972;2023-12-20T09:23:16;5.70;99.90
21627;DHT22;10975;47.872;12.972;2023-12-20T09:25:44;5.70;99.90
21627;DHT22;10975;47.872;12.972;2023-12-20T09:28:11;5.80;99.90
21627;DHT22;10975;47.872;12.972;2023-12-20T09:30:38;5.80;99.90
21627;DHT22;10975;47.872;12.972;2023-12-20T09:33:07;5.80;99.90
21627;DHT22;10975;47.872;12.972;2023-12-20T09:35:34;5.80;99.90
21627;DHT22;10975;47.872;12.972;2023-12-20T09:38:02;5.80;99.90
21627;DHT22;10975;47.872;12.972;2023-12-20T09:40:28;5.80;99.90
21627;DHT22;10975;47.872;12.972;2023-12-20T09:42:56;5.90;99.90
21627;DHT22;10975;47.872;12.972;2023-12-20T09:45:23;6.00;99.90
21627;DHT22;10975;47.872;12.972;2023-12-20T09:47:52;5.90;99.90
21627;DHT22;10975;47.872;12.972;2023-12-20T09:50:22;5.90;99.90
21627;DHT22;10975;47.872;12.972;2023-12-20T09:52:50;6.00;99.90
21627;DHT22;10975;47.872;12.972;2023-12-20T09:55:17;6.00;99.90
21627;DHT22;10975;47.872;12.972;2023-12-20T09:57:48;6.00;99.90
21627;DHT22;10975;47.872;12.972;2023-12-20T10:00:16;6.00;99.90
21627;DHT22;10975;47.872;12.972;2023-12-20T10:02:52;6.10;99.90
21627;DHT22;10975;47.872;12.972;2023-12-20T10:05:29;6.10;99.90
21627;DHT22;10975;47.872;12.972;2023-12-20T10:07:57;6.20;99.90
21627;DHT22;10975;47.872;12.972;2023-12-20T10:10:24;6.20;99.90
21627;DHT22;10975;47.872;12.972;2023-12-20T10:13:08;6.20;99.90
21627;DHT22;10975;47.872;12.972;2023-12-20T10:15:35;6.20;99.90
21627;DHT22;10975;47.872;12.972;2023-12-20T10:18:02;6.20;99.90
21627;DHT22;10975;47.872;12.972;2023-12-20T10:20:30;6.10;99.90
21627;DHT22;10975;47.872;12.972;2023-12-20T10:23:00;6.30;99.90
21627;DHT22;10975;47.872;12.972;2023-12-20T10:25:27;6.30;99.90
21627;DHT22;10975;47.872;12.972;2023-12-20T10:28:14;6.20;99.90
21627;DHT22;10975;47.872;12.972;2023-12-20T10:30:41;6.30;99.90
21627;DHT22;10975;47.872;12.972;2023-12-20T10:33:09;6.30;99.90
21627;DHT22;10975;47.872;12.972;2023-12-20T10:35:37;6.40;99.90
21627;DHT22;10975;47.872;12.972;2023-12-20T10:38:06;6.50;99.90
21627;DHT22;10975;47.872;12.972;2023-12-20T10:40:36;6.30;99.90
21627;DHT22;10975;47.872;12.972;2023-12-20T10:43:06;6.30;99.90
21627;DHT22;10975;47.872;12.972;2023-12-20T10:45:34;6.40;99.90
21627;DHT22;10975;47.872;12.972;2023-12-20T10:48:01;6.40;99.90
21627;DHT22;10975;47.872;12.972;2023-12-20T10:50:29;6.50;99.90
21627;DHT22;10975;47.872;12.972;2023-12-20T10:52:57;6.30;99.90
21627;DHT22;10975;47.872;12.972;2023-12-20T10:55:24;6.10;99.90
21627;DHT22;10975;47.872;12.972;2023-12-20T10:57:52;6.30;99.90
21627;DHT22;10975;47.872;12.972;2023-12-20T11:00:19;6.30;99.90
21627;DHT22;10975;47.872;12.972;2023-12-20T11:02:48;6.40;99.90
21627;DHT22;10975;47.872;12.972;2023-12-20T11:09:03;6.50;99.90
21627;DHT22;10975;47.872;12.972;2023-12-20T11:11:04;6.40;99.90
21627;DHT22;10975;47.872;12.972;2023-12-20T11:13:34;6.40;99.90
21627;DHT22;10975;47.872;12.972;2023-12-20T11:16:03;6.40;99.90
21627;DHT22;10975;47.872;12.972;2023-12-20T11:18:30;6.50;99.90
21627;DHT22;10975;47.872;12.972;2023-12-20T11:21:00;6.40;99.90
21627;DHT22;10975;47.872;12.972;2023-12-20T11:23:29;6.60;99.90
21627;DHT22;10975;47.872;12.972;2023-12-20T11:25:56;6.50;99.90
21627;DHT22;10975;47.872;12.972;2023-12-20T11:28:25;6.60;99.90
21627;DHT22;10975;47.872;12.972;2023-12-20T11:30:56;6.60;99.90
21627;DHT22;10975;47.872;12.972;2023-12-20T11:33:30;6.60;99.90
21627;DHT22;10975;47.872;12.972;2023-12-20T11:35:57;6.60;99.90
21627;DHT22;10975;47.872;12.972;2023-12-20T11:38:24;6.70;99.90
21627;DHT22;10975;47.872;12.972;2023-12-20T11:40:53;6.80;99.90
21627;DHT22;10975;47.872;12.972;2023-12-20T11:43:29;6.70;99.90
21627;DHT22;10975;47.872;12.972;2023-12-20T11:45:56;6.80;99.90
21627;DHT22;10975;47.872;12.972;2023-12-20T11:48:29;6.70;99.90
21627;DHT22;10975;47.872;12.972;2023-12-20T11:50:56;6.70;99.90
21627;DHT22;10975;47.872;12.972;2023-12-20T11:53:23;6.70;99.90
21627;DHT22;10975;47.872;12.972;2023-12-20T11:55:49;6.70;99.90
21627;DHT22;10975;47.872;12.972;2023-12-20T11:58:16;6.70;99.90
21627;DHT22;10975;47.872;12.972;2023-12-20T12:00:43;6.60;99.90
21627;DHT22;10975;47.872;12.972;2023-12-20T12:03:10;6.60;99.90
21627;DHT22;10975;47.872;12.972;2023-12-20T12:05:40;6.70;99.90
21627;DHT22;10975;47.872;12.972;2023-12-20T12:08:07;6.60;99.90
21627;DHT22;10975;47.872;12.972;2023-12-20T12:10:34;6.60;99.90
21627;DHT22;10975;47.872;12.972;2023-12-20T12:13:01;6.60;99.90
21627;DHT22;10975;47.872;12.972;2023-12-20T12:15:29;6.50;99.90
21627;DHT22;10975;47.872;12.972;2023-12-20T12:17:56;6.50;99.90
21627;DHT22;10975;47.872;12.972;2023-12-20T12:20:23;6.50;99.90
21627;DHT22;10975;47.872;12.972;2023-12-20T12:23:00;6.60;99.90
21627;DHT22;10975;47.872;12.972;2023-12-20T12:25:28;6.60;99.90
21627;DHT22;10975;47.872;12.972;2023-12-20T12:27:55;6.60;99.90
21627;DHT22;10975;47.872;12.972;2023-12-20T12:30:22;6.50;99.90
21627;DHT22;10975;47.872;12.972;2023-12-20T12:32:50;6.60;99.90
21627;DHT22;10975;47.872;12.972;2023-12-20T12:35:17;6.40;99.90
21627;DHT22;10975;47.872;12.972;2023-12-20T12:37:45;6.50;99.90
21627;DHT22;10975;47.872;12.972;2023-12-20T12:40:12;6.50;99.90
21627;DHT22;10975;47.872;12.972;2023-12-20T12:42:40;6.50;99.90
21627;DHT22;10975;47.872;12.972;2023-12-20T12:45:07;6.40;99.90
21627;DHT22;10975;47.872;12.972;2023-12-20T12:47:34;6.50;99.90
21627;DHT22;10975;47.872;12.972;2023-12-20T12:50:01;6.50;99.90
21627;DHT22;10975;47.872;12.972;2023-12-20T12:52:28;6.60;99.90
21627;DHT22;10975;47.872;12.972;2023-12-20T12:54:55;6.50;99.90
21627;DHT22;10975;47.872;12.972;2023-12-20T12:57:22;6.40;99.90
21627;DHT22;10975;47.872;12.972;2023-12-20T12:59:49;6.40;99.90
21627;DHT22;10975;47.872;12.972;2023-12-20T13:02:16;6.40;99.90
21627;DHT22;10975;47.872;12.972;2023-12-20T13:04:43;6.40;99.90
21627;DHT22;10975;47.872;12.972;2023-12-20T13:07:10;6.40;99.90
21627;DHT22;10975;47.872;12.972;2023-12-20T13:09:38;6.30;99.90
21627;DHT22;10975;47.872;12.972;2023-12-20T13:12:05;6.30;99.90
21627;DHT22;10975;47.872;12.972;2023-12-20T13:14:33;6.20;99.90
21627;DHT22;10975;47.872;12.972;2023-12-20T13:17:06;6.20;99.90
21627;DHT22;10975;47.872;12.972;2023-12-20T13:19:33;6.20;99.90
21627;DHT22;10975;47.872;12.972;2023-12-20T13:22:00;6.30;99.90
21627;DHT22;10975;47.872;12.972;2023-12-20T13:24:26;6.20;99.90
21627;DHT22;10975;47.872;12.972;2023-12-20T13:26:53;6.30;99.90
21627;DHT22;10975;47.872;12.972;2023-12-20T13:29:20;6.30;99.90
21627;DHT22;10975;47.872;12.972;2023-12-20T13:31:47;6.30;99.90
21627;DHT22;10975;47.872;12.972;2023-12-20T13:34:13;6.20;99.90
21627;DHT22;10975;47.872;12.972;2023-12-20T13:36:40;6.30;99.90
21627;DHT22;10975;47.872;12.972;2023-12-20T13:39:07;6.30;99.90
21627;DHT22;10975;47.872;12.972;2023-12-20T13:41:34;6.20;99.90
21627;DHT22;10975;47.872;12.972;2023-12-20T13:44:01;6.20;99.90
21627;DHT22;10975;47.872;12.972;2023-12-20T13:46:30;6.20;99.90
21627;DHT22;10975;47.872;12.972;2023-12-20T13:48:57;6.10;99.90
21627;DHT22;10975;47.872;12.972;2023-12-20T13:51:23;6.20;99.90
21627;DHT22;10975;47.872;12.972;2023-12-20T13:53:50;6.20;99.90
21627;DHT22;10975;47.872;12.972;2023-12-20T13:56:17;6.00;99.90
21627;DHT22;10975;47.872;12.972;2023-12-20T13:58:46;6.00;99.90
21627;DHT22;10975;47.872;12.972;2023-12-20T14:01:13;6.00;99.90
21627;DHT22;10975;47.872;12.972;2023-12-20T14:03:40;6.00;99.90
21627;DHT22;10975;47.872;12.972;2023-12-20T14:06:07;6.00;99.90
21627;DHT22;10975;47.872;12.972;2023-12-20T14:08:34;6.00;99.90
21627;DHT22;10975;47.872;12.972;2023-12-20T14:11:02;6.00;99.90
21627;DHT22;10975;47.872;12.972;2023-12-20T14:13:29;5.90;99.90
21627;DHT22;10975;47.872;12.972;2023-12-20T14:15:56;6.00;99.90
21627;DHT22;10975;47.872;12.972;2023-12-20T14:18:23;6.00;99.90
21627;DHT22;10975;47.872;12.972;2023-12-20T14:20:50;6.00;99.90
21627;DHT22;10975;47.872;12.972;2023-12-20T14:23:17;5.90;99.90
21627;DHT22;10975;47.872;12.972;2023-12-20T14:25:44;6.00;99.90
21627;DHT22;10975;47.872;12.972;2023-12-20T14:28:17;6.00;99.90
21627;DHT22;10975;47.872;12.972;2023-12-20T14:30:44;5.90;99.90
21627;DHT22;10975;47.872;12.972;2023-12-20T14:33:12;5.90;99.90
21627;DHT22;10975;47.872;12.972;2023-12-20T14:35:39;5.90;99.90
21627;DHT22;10975;47.872;12.972;2023-12-20T14:38:10;5.90;99.90
21627;DHT22;10975;47.872;12.972;2023-12-20T14:40:37;5.90;99.90
21627;DHT22;10975;47.872;12.972;2023-12-20T14:43:05;5.90;99.90
21627;DHT22;10975;47.872;12.972;2023-12-20T14:45:33;5.80;99.90
21627;DHT22;10975;47.872;12.972;2023-12-20T14:47:59;5.80;99.90
21627;DHT22;10975;47.872;12.972;2023-12-20T14:50:26;5.80;99.90
21627;DHT22;10975;47.872;12.972;2023-12-20T14:52:53;5.80;99.90
21627;DHT22;10975;47.872;12.972;2023-12-20T14:55:21;5.90;99.90
21627;DHT22;10975;47.872;12.972;2023-12-20T14:57:48;5.90;99.90
21627;DHT22;10975;47.872;12.972;2023-12-20T15:00:16;5.90;99.90
21627;DHT22;10975;47.872;12.972;2023-12-20T15:02:43;5.90;99.90
21627;DHT22;10975;47.872;12.972;2023-12-20T15:05:10;5.80;99.90
21627;DHT22;10975;47.872;12.972;2023-12-20T15:07:37;5.90;99.90
21627;DHT22;10975;47.872;12.972;2023-12-20T15:10:04;5.80;99.90
21627;DHT22;10975;47.872;12.972;2023-12-20T15:12:31;5.80;99.90
21627;DHT22;10975;47.872;12.972;2023-12-20T15:15:00;5.80;99.90
21627;DHT22;10975;47.872;12.972;2023-12-20T15:17:27;5.80;99.90
21627;DHT22;10975;47.872;12.972;2023-12-20T15:19:54;5.80;99.90
21627;DHT22;10975;47.872;12.972;2023-12-20T15:22:21;5.80;99.90
21627;DHT22;10975;47.872;12.972;2023-12-20T15:24:48;6.00;99.90
21627;DHT22;10975;47.872;12.972;2023-12-20T15:27:15;6.10;99.90
21627;DHT22;10975;47.872;12.972;2023-12-20T15:29:42;6.10;99.90
21627;DHT22;10975;47.872;12.972;2023-12-20T15:32:09;5.90;99.90
21627;DHT22;10975;47.872;12.972;2023-12-20T15:34:36;5.80;99.90